createdAt,value
2018-06-13T00:01:34.532Z,53.58
2018-06-13T00:04:02.970Z,53.16
2018-06-13T00:06:31.474Z,53.49
2018-06-13T00:09:00.330Z,53.75
2018-06-13T00:11:51.416Z,53.38
2018-06-13T00:14:19.758Z,53.64
2018-06-13T00:16:48.608Z,53.44
2018-06-13T00:19:16.922Z,53.75
2018-06-13T00:21:45.424Z,53.77
2018-06-13T00:24:14.513Z,53.68
2018-06-13T00:26:43.200Z,53.66
2018-06-13T00:29:11.736Z,53.29
2018-06-13T00:31:40.932Z,53.61
2018-06-13T00:34:11.092Z,54.08
2018-06-13T00:36:39.552Z,53.95
2018-06-13T00:39:07.886Z,54.12
2018-06-13T00:41:40.724Z,53.97
2018-06-13T00:44:09.482Z,53.94
2018-06-13T00:46:38.456Z,54.02
2018-06-13T00:49:07.278Z,53.89
2018-06-13T00:57:21.132Z,54.56
2018-06-13T01:00:08.884Z,54.35
2018-06-13T01:02:37.642Z,54.54
2018-06-13T01:05:06.461Z,54.68
2018-06-13T01:07:35.728Z,54.82
2018-06-13T01:10:04.732Z,54.76
2018-06-13T01:12:33.484Z,55.12
2018-06-13T01:15:03.248Z,55.25
2018-06-13T01:17:32.192Z,54.80
2018-06-13T01:20:03.908Z,55.11
2018-06-13T01:22:34.226Z,55.52
2018-06-13T01:25:08.532Z,55.71
2018-06-13T01:27:37.801Z,55.69
2018-06-13T01:32:59.194Z,55.85
2018-06-13T01:35:29.818Z,55.69
2018-06-13T01:37:59.817Z,55.95
2018-06-13T01:43:21.190Z,56.82
2018-06-13T01:45:50.943Z,56.48
2018-06-13T01:48:20.042Z,56.78
2018-06-13T01:50:57.605Z,56.47
2018-06-13T01:53:28.251Z,56.76
2018-06-13T01:55:59.287Z,58.53
2018-06-13T01:58:31.036Z,59.23
2018-06-13T02:01:10.731Z,59.97
2018-06-13T02:03:41.292Z,60.48
2018-06-13T02:06:11.687Z,60.64
2018-06-13T02:08:42.225Z,60.50
2018-06-13T02:11:18.473Z,60.23
2018-06-13T02:13:48.262Z,60.59
2018-06-13T02:16:16.992Z,60.25
2018-06-13T02:18:46.605Z,60.83
2018-06-13T02:21:17.536Z,60.40
2018-06-13T02:23:54.198Z,60.18
2018-06-13T02:26:23.874Z,60.05
2018-06-13T02:28:53.498Z,60.08
2018-06-13T02:31:45.551Z,59.78
2018-06-13T02:34:14.996Z,60.24
2018-06-13T02:36:43.963Z,59.18
2018-06-13T02:39:12.679Z,59.83
2018-06-13T02:41:41.738Z,59.73
2018-06-13T02:44:11.054Z,59.10
2018-06-13T02:46:40.106Z,59.20
2018-06-13T02:49:09.926Z,59.32
2018-06-13T02:51:44.483Z,59.77
2018-06-13T02:54:13.958Z,59.34
2018-06-13T02:56:43.192Z,59.21
2018-06-13T02:59:14.415Z,58.96
2018-06-13T03:01:43.215Z,58.88
2018-06-13T03:04:13.268Z,59.09
2018-06-13T03:06:42.619Z,58.48
2018-06-13T03:09:12.010Z,59.19
2018-06-13T03:11:41.958Z,58.76
2018-06-13T03:14:12.086Z,58.31
2018-06-13T03:16:41.120Z,59.05
2018-06-13T03:19:12.775Z,58.69
2018-06-13T03:21:59.379Z,59.29
2018-06-13T03:24:32.052Z,59.17
2018-06-13T03:27:02.854Z,59.30
2018-06-13T03:29:34.664Z,59.64
2018-06-13T03:32:26.483Z,59.53
2018-06-13T03:34:56.365Z,59.87
2018-06-13T03:37:29.761Z,58.92
2018-06-13T03:40:12.577Z,58.83
2018-06-13T03:42:42.796Z,59.56
2018-06-13T03:45:11.682Z,59.74
2018-06-13T03:47:40.054Z,59.26
2018-06-13T03:50:08.498Z,59.63
2018-06-13T03:52:37.842Z,59.78
2018-06-13T03:55:06.342Z,59.71
2018-06-13T03:57:44.878Z,59.85
2018-06-13T04:00:15.710Z,59.58
2018-06-13T04:02:46.102Z,60.35
2018-06-13T04:05:17.410Z,59.80
2018-06-13T04:10:19.744Z,60.53
2018-06-13T04:15:23.655Z,60.94
2018-06-13T04:17:52.090Z,60.96
2018-06-13T04:20:20.402Z,60.60
2018-06-13T04:22:48.794Z,61.35
2018-06-13T04:25:17.110Z,61.81
2018-06-13T04:27:45.547Z,61.76
2018-06-13T04:30:13.864Z,61.65
2018-06-13T04:32:42.205Z,61.72
2018-06-13T04:35:10.566Z,62.27
2018-06-13T04:37:39.787Z,62.35
2018-06-13T04:40:08.133Z,62.53
2018-06-13T04:42:36.504Z,62.38
2018-06-13T04:45:04.890Z,62.54
2018-06-13T04:47:33.178Z,62.72
2018-06-13T04:50:06.600Z,63.22
2018-06-13T04:52:34.924Z,62.99
2018-06-13T04:55:03.849Z,62.71
2018-06-13T04:57:32.138Z,62.58
2018-06-13T05:00:09.902Z,62.92
2018-06-13T05:02:38.205Z,63.24
2018-06-13T05:05:06.784Z,63.26
2018-06-13T05:07:35.145Z,62.99
2018-06-13T05:10:13.010Z,63.74
2018-06-13T05:12:41.319Z,63.96
2018-06-13T05:15:09.620Z,63.29
2018-06-13T05:17:37.958Z,63.82
2018-06-13T05:20:11.453Z,63.67
2018-06-13T05:22:39.766Z,63.36
2018-06-13T05:25:08.052Z,63.72
2018-06-13T05:27:37.333Z,63.57
2018-06-13T05:30:10.857Z,63.91
2018-06-13T05:32:39.204Z,63.97
2018-06-13T05:35:07.687Z,64.44
2018-06-13T05:37:35.985Z,64.27
2018-06-13T05:40:04.433Z,64.49
2018-06-13T05:42:33.031Z,65.07
2018-06-13T05:45:01.363Z,64.73
2018-06-13T05:47:29.643Z,64.55
2018-06-13T05:49:58.178Z,64.73
2018-06-13T05:52:27.629Z,64.64
2018-06-13T05:54:56.096Z,64.87
2018-06-13T05:57:24.362Z,64.53
2018-06-13T05:59:52.711Z,64.17
2018-06-13T06:02:21.042Z,64.70
2018-06-13T06:04:49.438Z,64.35
2018-06-13T06:07:17.717Z,64.05
2018-06-13T06:09:46.084Z,63.70
2018-06-13T06:12:14.398Z,63.65
2018-06-13T06:14:43.818Z,63.74
2018-06-13T06:17:12.123Z,63.27
2018-06-13T06:19:40.456Z,63.10
2018-06-13T06:22:08.866Z,62.85
2018-06-13T06:24:37.280Z,62.81
2018-06-13T06:27:06.962Z,62.62
2018-06-13T06:29:35.432Z,62.74
2018-06-13T06:32:08.920Z,62.73
2018-06-13T06:34:37.308Z,62.61
2018-06-13T06:37:05.630Z,61.75
2018-06-13T06:39:34.008Z,61.93
2018-06-13T06:42:02.517Z,62.16
2018-06-13T06:44:30.816Z,61.97
2018-06-13T06:46:59.278Z,62.23
2018-06-13T06:49:27.559Z,62.54
2018-06-13T06:51:55.974Z,62.02
2018-06-13T06:54:24.359Z,61.46
2018-06-13T06:56:52.698Z,61.61
2018-06-13T06:59:21.014Z,61.34
2018-06-13T07:01:49.706Z,61.20
2018-06-13T07:04:18.160Z,60.75
2018-06-13T07:06:46.582Z,60.18
2018-06-13T07:09:14.939Z,60.17
2018-06-13T07:11:43.392Z,59.97
2018-06-13T07:14:11.719Z,59.47
2018-06-13T07:16:40.686Z,58.54
2018-06-13T07:19:09.063Z,58.69
2018-06-13T07:21:46.956Z,58.38
2018-06-13T07:24:15.314Z,58.53
2018-06-13T07:26:43.789Z,57.67
2018-06-13T07:29:12.180Z,57.20
2018-06-13T07:31:50.028Z,57.23
2018-06-13T07:34:18.438Z,56.86
2018-06-13T07:36:46.831Z,57.23
2018-06-13T07:39:15.194Z,57.20
2018-06-13T07:41:43.606Z,56.75
2018-06-13T07:44:12.025Z,57.25
2018-06-13T07:46:40.449Z,57.20
2018-06-13T07:49:08.903Z,55.83
2018-06-13T07:51:37.396Z,56.16
2018-06-13T07:54:05.816Z,57.22
2018-06-13T07:56:35.409Z,58.21
2018-06-13T07:59:06.746Z,57.66
2018-06-13T08:01:36.247Z,57.98
2018-06-13T08:04:04.551Z,57.69
2018-06-13T08:06:32.904Z,56.64
2018-06-13T08:09:01.307Z,55.97
2018-06-13T08:11:34.756Z,54.79
2018-06-13T08:14:03.082Z,54.64
2018-06-13T08:16:31.540Z,54.30
2018-06-13T08:19:00.023Z,54.81
2018-06-13T08:21:28.414Z,55.22
2018-06-13T08:23:56.777Z,55.56
2018-06-13T08:26:25.260Z,55.61
2018-06-13T08:28:53.597Z,55.95
2018-06-13T08:31:21.954Z,55.34
2018-06-13T08:33:50.377Z,54.93
2018-06-13T08:36:18.684Z,54.19
2018-06-13T08:38:47.084Z,54.08
2018-06-13T08:44:22.833Z,53.55
2018-06-13T08:46:51.374Z,52.84
2018-06-13T08:49:20.674Z,52.66
2018-06-13T08:54:42.246Z,52.59
2018-06-13T08:57:11.036Z,52.65
2018-06-13T08:59:40.632Z,52.92
2018-06-13T09:04:51.372Z,53.64
2018-06-13T09:07:21.497Z,54.38
2018-06-13T09:09:50.440Z,54.94
2018-06-13T09:12:24.384Z,54.89
2018-06-13T09:14:53.514Z,54.93
2018-06-13T09:17:23.888Z,55.18
2018-06-13T09:19:52.608Z,55.30
2018-06-13T09:22:21.485Z,54.34
2018-06-13T09:24:50.217Z,54.64
2018-06-13T09:27:19.012Z,54.76
2018-06-13T09:29:47.686Z,54.71
2018-06-13T09:32:30.266Z,55.58
2018-06-13T09:34:59.294Z,56.08
2018-06-13T09:37:28.425Z,56.01
2018-06-13T09:39:58.240Z,56.74
2018-06-13T09:42:28.506Z,57.26
2018-06-13T09:44:57.228Z,56.49
2018-06-13T09:47:26.790Z,55.81
2018-06-13T09:49:56.870Z,56.24
2018-06-13T09:52:33.808Z,56.07
2018-06-13T09:55:02.666Z,55.47
2018-06-13T09:57:31.903Z,55.46
2018-06-13T10:00:05.904Z,55.35
2018-06-13T10:02:36.572Z,55.96
2018-06-13T10:05:06.644Z,54.15
2018-06-13T10:07:35.454Z,54.46
2018-06-13T10:10:22.798Z,53.06
2018-06-13T10:12:51.856Z,53.27
2018-06-13T10:15:24.746Z,52.66
2018-06-13T10:17:55.224Z,52.87
2018-06-13T10:20:25.584Z,53.23
2018-06-13T10:22:56.250Z,52.89
2018-06-13T10:25:25.991Z,53.46
2018-06-13T10:27:55.628Z,53.42
2018-06-13T10:30:24.645Z,53.37
2018-06-13T10:32:53.936Z,53.73
2018-06-13T10:35:22.642Z,54.74
2018-06-13T10:37:51.581Z,55.29
2018-06-13T10:40:21.238Z,55.05
2018-06-13T10:42:50.362Z,56.12
2018-06-13T10:45:20.057Z,56.69
2018-06-13T10:47:48.897Z,57.04
2018-06-13T10:50:17.504Z,57.69
2018-06-13T10:52:47.436Z,58.28
2018-06-13T10:55:16.259Z,58.54
2018-06-13T10:57:44.884Z,58.79
2018-06-13T11:00:15.080Z,58.75
2018-06-13T11:02:44.140Z,59.21
2018-06-13T11:05:13.002Z,59.07
2018-06-13T11:07:42.138Z,59.92
2018-06-13T11:13:09.171Z,60.85
2018-06-13T11:15:37.849Z,61.04
2018-06-13T11:18:06.190Z,60.61
2018-06-13T11:20:34.916Z,60.40
2018-06-13T11:23:03.220Z,60.22
2018-06-13T11:25:31.635Z,60.38
2018-06-13T11:28:01.233Z,59.72
2018-06-13T11:30:29.993Z,59.95
2018-06-13T11:32:58.353Z,60.29
2018-06-13T11:35:26.763Z,59.61
2018-06-13T11:37:55.752Z,59.34
2018-06-13T11:40:24.230Z,59.17
2018-06-13T11:42:53.050Z,58.48
2018-06-13T11:45:22.160Z,59.08
2018-06-13T11:47:50.658Z,58.66
2018-06-13T11:56:20.688Z,58.12
2018-06-13T11:58:49.628Z,58.92
2018-06-13T12:04:11.195Z,63.54
2018-06-13T12:06:39.670Z,64.56
2018-06-13T12:09:25.465Z,65.45
2018-06-13T12:12:03.329Z,65.88
2018-06-13T12:14:32.106Z,65.86
2018-06-13T12:17:01.876Z,65.86
2018-06-13T12:19:30.824Z,65.74
2018-06-13T12:21:59.705Z,66.15
2018-06-13T12:24:28.980Z,66.25
2018-06-13T12:26:57.791Z,65.96
2018-06-13T12:29:26.260Z,65.64
2018-06-13T12:31:54.721Z,64.29
2018-06-13T12:34:23.382Z,63.81
2018-06-13T12:36:52.299Z,63.89
2018-06-13T12:39:21.028Z,63.78
2018-06-13T12:41:54.767Z,64.17
2018-06-13T12:44:25.867Z,63.94
2018-06-13T12:46:54.769Z,64.79
2018-06-13T12:55:30.494Z,63.00
2018-06-13T12:57:59.486Z,62.47
2018-06-13T13:00:28.308Z,62.63
2018-06-13T13:02:56.716Z,62.79
2018-06-13T13:05:25.686Z,63.61
2018-06-13T13:07:54.264Z,63.55
2018-06-13T13:13:29.593Z,62.95
2018-06-13T13:15:58.400Z,62.38
2018-06-13T13:18:26.827Z,62.65
2018-06-13T13:21:04.895Z,62.57
2018-06-13T13:23:33.791Z,62.39
2018-06-13T13:26:02.203Z,62.49
2018-06-13T13:28:30.936Z,62.72
2018-06-13T13:30:59.503Z,62.75
2018-06-13T13:33:28.755Z,61.70
2018-06-13T13:35:57.280Z,61.74
2018-06-13T13:38:26.413Z,62.06
2018-06-13T13:40:55.171Z,62.00
2018-06-13T13:43:24.213Z,61.64
2018-06-13T13:45:52.976Z,61.36
2018-06-13T13:48:22.038Z,61.44
2018-06-13T13:50:50.613Z,61.30
2018-06-13T13:53:19.296Z,61.54
2018-06-13T13:55:48.251Z,61.55
2018-06-13T13:58:17.929Z,61.31
2018-06-13T14:06:54.449Z,61.92
2018-06-13T14:09:25.742Z,62.40
2018-06-13T14:11:59.716Z,62.52
2018-06-13T14:14:29.251Z,61.81
2018-06-13T14:16:58.277Z,61.89
2018-06-13T14:19:27.216Z,62.08
2018-06-13T14:21:55.917Z,62.11
2018-06-13T14:24:24.643Z,62.15
2018-06-13T14:26:53.903Z,62.86
2018-06-13T14:29:32.603Z,62.68
2018-06-13T14:32:24.094Z,62.32
2018-06-13T14:34:52.837Z,63.12
2018-06-13T14:37:22.674Z,62.46
2018-06-13T14:39:51.675Z,62.53
2018-06-13T14:45:27.859Z,61.20
2018-06-13T14:47:56.648Z,60.94
2018-06-13T14:50:26.503Z,61.62
2018-06-13T14:52:55.120Z,61.66
2018-06-13T14:55:24.190Z,61.48
2018-06-13T14:57:52.869Z,60.53
2018-06-13T15:00:26.622Z,61.13
2018-06-13T15:02:55.204Z,60.80
2018-06-13T15:05:23.764Z,60.52
2018-06-13T15:07:52.382Z,61.04
2018-06-13T15:10:26.446Z,61.41
2018-06-13T15:12:54.982Z,61.73
2018-06-13T15:15:23.386Z,61.85
2018-06-13T15:17:53.364Z,61.52
2018-06-13T15:20:21.899Z,61.70
2018-06-13T15:22:50.339Z,61.68
2018-06-13T15:25:18.869Z,61.41
2018-06-13T15:27:47.750Z,61.40
2018-06-13T15:30:25.875Z,61.17
2018-06-13T15:32:54.390Z,61.46
2018-06-13T15:35:22.982Z,61.33
2018-06-13T15:37:51.543Z,61.38
2018-06-13T15:40:20.273Z,61.36
2018-06-13T15:42:48.678Z,61.29
2018-06-13T15:45:17.949Z,61.52
2018-06-13T15:47:46.560Z,62.21
2018-06-13T15:50:20.059Z,62.04
2018-06-13T15:52:48.708Z,61.62
2018-06-13T15:55:17.363Z,61.51
2018-06-13T15:57:46.030Z,62.15
2018-06-13T16:00:14.630Z,61.22
2018-06-13T16:02:43.412Z,61.84
2018-06-13T16:05:12.267Z,61.91
2018-06-13T16:07:40.755Z,61.65
2018-06-13T16:10:09.526Z,61.78
2018-06-13T16:12:37.938Z,62.02
2018-06-13T16:15:06.354Z,62.98
2018-06-13T16:17:34.746Z,62.55
2018-06-13T16:20:03.234Z,62.63
2018-06-13T16:22:31.748Z,62.73
2018-06-13T16:25:00.080Z,62.07
2018-06-13T16:27:28.698Z,62.40
2018-06-13T16:29:57.305Z,62.43
2018-06-13T16:32:30.934Z,62.95
2018-06-13T16:34:59.473Z,62.79
2018-06-13T16:37:28.392Z,62.99
2018-06-13T16:39:56.923Z,62.96
2018-06-13T16:42:48.162Z,63.41
2018-06-13T16:45:16.511Z,63.91
2018-06-13T16:47:44.874Z,64.42
2018-06-13T16:50:24.505Z,64.16
2018-06-13T16:53:05.885Z,66.52
2018-06-13T16:55:34.633Z,64.84
2018-06-13T16:58:02.992Z,64.92
2018-06-13T17:00:31.590Z,65.08
2018-06-13T17:03:00.114Z,65.07
2018-06-13T17:05:28.565Z,65.59
2018-06-13T17:07:57.028Z,65.08
2018-06-13T17:10:25.546Z,65.54
2018-06-13T17:12:54.085Z,64.94
2018-06-13T17:15:22.748Z,64.24
2018-06-13T17:17:51.333Z,64.37
2018-06-13T17:20:29.292Z,65.01
2018-06-13T17:22:57.761Z,64.42
2018-06-13T17:25:26.240Z,64.21
2018-06-13T17:27:54.700Z,64.06
2018-06-13T17:30:23.414Z,64.56
2018-06-13T17:32:52.075Z,63.59
2018-06-13T17:35:21.014Z,64.21
2018-06-13T17:37:49.547Z,64.18
2018-06-13T17:40:18.909Z,63.98
2018-06-13T17:42:47.254Z,64.25
2018-06-13T17:45:15.825Z,63.86
2018-06-13T17:47:44.424Z,63.87
2018-06-13T17:50:13.030Z,63.19
2018-06-13T17:52:41.599Z,62.86
2018-06-13T17:55:10.306Z,63.50
2018-06-13T17:57:39.101Z,62.72
2018-06-13T18:00:07.557Z,62.67
2018-06-13T18:02:36.088Z,63.74
2018-06-13T18:05:04.668Z,63.53
2018-06-13T18:07:33.263Z,63.39
2018-06-13T18:10:01.823Z,63.19
2018-06-13T18:12:30.853Z,63.27
2018-06-13T18:14:59.458Z,62.84
2018-06-13T18:17:28.714Z,63.25
2018-06-13T18:19:57.464Z,63.23
2018-06-13T18:22:26.115Z,63.43
2018-06-13T18:24:54.636Z,63.21
2018-06-13T18:27:23.519Z,63.49
2018-06-13T18:29:52.054Z,63.93
2018-06-13T18:32:20.493Z,63.38
2018-06-13T18:34:49.529Z,63.39
2018-06-13T18:37:18.507Z,63.45
2018-06-13T18:39:47.658Z,63.22
2018-06-13T18:42:16.233Z,63.61
2018-06-13T18:44:44.992Z,63.25
2018-06-13T18:47:13.667Z,63.32
2018-06-13T18:49:42.473Z,63.78
2018-06-13T18:52:11.068Z,63.74
2018-06-13T18:54:42.159Z,64.22
2018-06-13T18:57:10.906Z,63.84
2018-06-13T18:59:39.759Z,63.84
2018-06-13T19:02:08.400Z,63.91
2018-06-13T19:04:37.649Z,63.78
2018-06-13T19:07:06.740Z,64.05
2018-06-13T19:09:35.708Z,63.78
2018-06-13T19:12:09.375Z,64.30
2018-06-13T19:14:37.779Z,64.81
2018-06-13T19:17:06.514Z,64.94
2018-06-13T19:19:35.185Z,64.33
2018-06-13T19:22:03.688Z,63.99
2018-06-13T19:24:32.219Z,64.08
2018-06-13T19:27:01.486Z,64.72
2018-06-13T19:29:30.383Z,64.43
2018-06-13T19:32:04.187Z,64.58
2018-06-13T19:34:32.924Z,64.55
2018-06-13T19:37:01.524Z,64.31
2018-06-13T19:39:30.334Z,64.46
2018-06-13T19:45:10.056Z,64.12
2018-06-13T19:47:43.778Z,64.55
2018-06-13T19:50:12.431Z,64.83
2018-06-13T19:52:46.288Z,64.75
2018-06-13T19:55:20.278Z,64.87
2018-06-13T19:57:48.909Z,64.82
2018-06-13T20:00:17.718Z,64.62
2018-06-13T20:02:51.954Z,65.66
2018-06-13T20:05:27.053Z,65.00
2018-06-13T20:07:57.095Z,65.00
2018-06-13T20:10:25.849Z,64.71
2018-06-13T20:12:59.694Z,64.90
2018-06-13T20:15:33.564Z,64.85
2018-06-13T20:18:07.251Z,65.29
2018-06-13T20:20:40.834Z,64.93
2018-06-13T20:23:09.354Z,64.74
2018-06-13T20:25:43.216Z,64.89
2018-06-13T20:28:17.340Z,64.96
2018-06-13T20:31:26.128Z,65.31
2018-06-13T20:33:54.706Z,64.75
2018-06-13T20:36:23.424Z,64.31
2018-06-13T20:38:52.178Z,64.93
2018-06-13T20:41:20.711Z,65.20
2018-06-13T20:43:49.292Z,65.64
2018-06-13T20:46:17.800Z,65.16
2018-06-13T20:48:46.414Z,65.61
2018-06-13T20:51:15.384Z,65.18
2018-06-13T20:53:43.975Z,65.62
2018-06-13T20:56:12.440Z,65.49
2018-06-13T20:58:41.370Z,65.93
2018-06-13T21:01:09.792Z,65.50
2018-06-13T21:03:38.236Z,65.79
2018-06-13T21:06:07.100Z,65.43
2018-06-13T21:08:35.430Z,65.42
2018-06-13T21:11:13.278Z,65.31
2018-06-13T21:13:41.668Z,65.59
2018-06-13T21:16:10.214Z,65.10
2018-06-13T21:18:38.721Z,65.43
2018-06-13T21:21:16.644Z,65.64
2018-06-13T21:23:45.310Z,65.45
2018-06-13T21:26:13.734Z,66.03
2018-06-13T21:28:42.157Z,65.68
2018-06-13T21:31:10.682Z,65.73
2018-06-13T21:33:39.188Z,65.72
2018-06-13T21:36:07.716Z,65.67
2018-06-13T21:38:36.061Z,65.60
2018-06-13T21:46:50.966Z,65.70
2018-06-13T21:49:19.444Z,66.02
2018-06-13T21:51:47.826Z,66.06
2018-06-13T21:54:16.324Z,65.63
2018-06-13T21:56:44.783Z,65.80
2018-06-13T21:59:13.118Z,66.01
2018-06-13T22:01:41.666Z,65.75
2018-06-13T22:04:10.090Z,65.59
2018-06-13T22:06:38.566Z,66.38
2018-06-13T22:09:08.855Z,65.72
2018-06-13T22:11:42.781Z,66.17
2018-06-13T22:14:12.029Z,65.95
2018-06-13T22:16:40.463Z,65.78
2018-06-13T22:19:08.854Z,66.08
2018-06-13T22:21:50.953Z,65.31
2018-06-13T22:24:19.264Z,65.80
2018-06-13T22:26:47.577Z,65.69
2018-06-13T22:29:17.600Z,65.28
2018-06-13T22:31:46.459Z,65.72
2018-06-13T22:34:16.244Z,65.52
2018-06-13T22:36:45.684Z,65.88
2018-06-13T22:39:14.202Z,65.61
2018-06-13T22:41:43.005Z,65.03
2018-06-13T22:44:12.571Z,65.31
2018-06-13T22:46:42.043Z,65.47
2018-06-13T22:49:10.565Z,65.27
2018-06-13T22:51:57.687Z,64.96
2018-06-13T22:54:27.161Z,65.22
2018-06-13T22:56:56.244Z,64.79
2018-06-13T22:59:24.777Z,65.03
2018-06-13T23:01:53.401Z,65.40
2018-06-13T23:04:21.929Z,65.05
2018-06-13T23:06:50.887Z,64.89
2018-06-13T23:09:20.929Z,65.30
2018-06-13T23:11:52.369Z,65.10
2018-06-13T23:14:26.298Z,65.20
2018-06-13T23:16:55.154Z,64.89
2018-06-13T23:19:24.015Z,64.67
2018-06-13T23:21:54.859Z,64.67
2018-06-13T23:24:23.679Z,64.33
2018-06-13T23:26:52.402Z,64.45
2018-06-13T23:29:21.857Z,64.57
2018-06-13T23:31:50.425Z,64.28
2018-06-13T23:34:19.707Z,65.32
2018-06-13T23:36:48.320Z,64.62
2018-06-13T23:39:16.648Z,64.79
2018-06-13T23:41:45.905Z,64.79
2018-06-13T23:44:14.681Z,64.72
2018-06-13T23:46:44.089Z,64.74
2018-06-13T23:49:15.731Z,64.78
2018-06-13T23:51:57.828Z,64.92
2018-06-13T23:54:27.913Z,64.48
2018-06-13T23:56:57.258Z,64.28
2018-06-13T23:59:25.830Z,64.58
